Terminal Aerodrome Forecast
Issued by NWS

Home | Current Version | Previous Version | Text Only | Print | Product List | Glossary On
Versions: 1 2 3 4 5 6 7 8 9 10 11 12
805
FTUS42 KMHX 250532
TAFPGV
TAF
KPGV 250532Z 2506/2606 21006KT P6SM BKN250 WS020/22035KT
     FM251000 21005KT 6SM BR SCT250
     FM251800 20010KT P6SM SCT045
     FM260100 18006KT P6SM SCT250
      AMD LTD TO CLD VIS AND WIND=

USA.gov is the U.S. government's official web portal to all federal, state and local government web resources and services.